createdAt,value
2022-12-29T00:01:48.132Z,99488.09
2022-12-29T00:06:52.737Z,99495.94
2022-12-29T00:11:55.872Z,99497.72
2022-12-29T00:16:59.215Z,99495.97
2022-12-29T00:22:21.175Z,99499.47
2022-12-29T00:27:41.713Z,99503.00
2022-12-29T00:33:02.213Z,99513.44
2022-12-29T00:38:27.659Z,99514.34
2022-12-29T00:43:48.403Z,99520.44
2022-12-29T00:49:08.875Z,99518.69
2022-12-29T00:54:14.183Z,99515.22
2022-12-29T00:59:17.986Z,99499.56
2022-12-29T01:04:22.272Z,99521.31
2022-12-29T01:09:44.763Z,99534.38
2022-12-29T01:14:47.959Z,99530.91
2022-12-29T01:19:51.202Z,99530.91
2022-12-29T01:24:55.856Z,99539.59
2022-12-29T01:29:59.247Z,99544.81
2022-12-29T01:35:02.621Z,99541.38
2022-12-29T01:40:08.697Z,99540.47
2022-12-29T01:45:14.276Z,99539.59
2022-12-29T01:50:22.551Z,99536.13
2022-12-29T01:55:29.365Z,99541.34
2022-12-29T02:00:32.681Z,99534.38
2022-12-29T02:05:40.876Z,99537.88
2022-12-29T02:10:46.693Z,99510.00
2022-12-29T02:15:59.344Z,99550.91
2022-12-29T02:21:46.971Z,99544.81
2022-12-29T02:27:31.442Z,99550.88
2022-12-29T02:32:40.032Z,99559.59
2022-12-29T02:37:46.847Z,99561.34
2022-12-29T02:42:53.317Z,99572.63
2022-12-29T02:48:06.969Z,99572.63
2022-12-29T02:53:15.211Z,99570.91
2022-12-29T02:58:21.570Z,99576.13
2022-12-29T03:03:40.582Z,99586.56
2022-12-29T03:08:52.158Z,99589.19
2022-12-29T03:14:19.978Z,99583.06
2022-12-29T03:19:31.541Z,99585.69
2022-12-29T03:24:40.134Z,99587.41
2022-12-29T03:29:53.438Z,99593.50
2022-12-29T03:34:58.919Z,99589.13
2022-12-29T03:40:02.295Z,99596.09
2022-12-29T03:45:08.714Z,99590.00
2022-12-29T03:50:15.775Z,99590.84
2022-12-29T03:55:19.111Z,99589.97
2022-12-29T04:00:22.557Z,99603.03
2022-12-29T04:05:27.180Z,99596.94
2022-12-29T04:10:30.411Z,99593.44
2022-12-29T04:15:33.695Z,99597.75
2022-12-29T04:20:55.795Z,99615.91
2022-12-29T04:25:59.005Z,99605.31
2022-12-29T04:31:02.390Z,99606.97
2022-12-29T04:36:07.753Z,99622.69
2022-12-29T04:41:12.280Z,99627.19
2022-12-29T04:46:15.632Z,99635.06
2022-12-29T04:51:20.295Z,99650.78
2022-12-29T04:56:23.520Z,99654.25
2022-12-29T05:01:26.848Z,99652.47
2022-12-29T05:06:31.770Z,99655.06
2022-12-29T05:11:35.009Z,99655.03
2022-12-29T05:16:38.325Z,99650.69
2022-12-29T05:21:42.961Z,99655.03
2022-12-29T05:26:46.179Z,99667.19
2022-12-29T05:31:49.473Z,99673.28
2022-12-29T05:36:54.292Z,99676.78
2022-12-29T05:41:57.670Z,99678.50
2022-12-29T05:47:00.970Z,99680.28
2022-12-29T05:52:05.999Z,99685.53
2022-12-29T05:57:09.414Z,99682.06
2022-12-29T06:02:13.203Z,99681.25
2022-12-29T06:07:18.814Z,99685.63
2022-12-29T06:12:22.040Z,99684.75
2022-12-29T06:17:25.745Z,99683.00
2022-12-29T06:22:30.310Z,99684.72
2022-12-29T06:27:33.883Z,99687.34
2022-12-29T06:32:37.430Z,99690.00
2022-12-29T06:37:42.318Z,99692.63
2022-12-29T06:42:45.681Z,99696.16
2022-12-29T06:47:49.099Z,99690.97
2022-12-29T06:52:53.859Z,99701.47
2022-12-29T06:57:57.656Z,99698.94
2022-12-29T07:03:01.134Z,99697.22
2022-12-29T07:08:06.831Z,99692.88
2022-12-29T07:13:10.656Z,99691.97
2022-12-29T07:18:13.873Z,99698.09
2022-12-29T07:23:18.832Z,99699.84
2022-12-29T07:28:22.172Z,99699.88
2022-12-29T07:33:25.495Z,99697.25
2022-12-29T07:38:30.104Z,99689.41
2022-12-29T07:43:33.343Z,99697.25
2022-12-29T07:48:37.147Z,99702.50
2022-12-29T07:53:41.818Z,99709.47
2022-12-29T07:58:45.618Z,99719.94
2022-12-29T08:03:54.014Z,99726.91
2022-12-29T08:09:11.153Z,99720.81
2022-12-29T08:14:16.934Z,99723.41
2022-12-29T08:19:20.172Z,99709.34
2022-12-29T08:24:24.964Z,99691.47
2022-12-29T08:29:28.155Z,99686.84
2022-12-29T08:34:32.810Z,99680.44
2022-12-29T08:39:37.520Z,99684.59
2022-12-29T08:44:41.872Z,99688.88
2022-12-29T08:49:45.084Z,99692.00
2022-12-29T08:54:49.670Z,99689.06
2022-12-29T08:59:53.330Z,99675.94
2022-12-29T09:04:58.422Z,99661.19
2022-12-29T09:10:03.239Z,99664.34
2022-12-29T09:15:08.081Z,99676.09
2022-12-29T09:20:12.209Z,99678.03
2022-12-29T09:25:17.115Z,99690.16
2022-12-29T09:30:21.161Z,99700.69
2022-12-29T09:35:24.451Z,99692.25
2022-12-29T09:40:32.858Z,99692.13
2022-12-29T09:45:42.353Z,99691.94
2022-12-29T09:50:49.351Z,99701.91
2022-12-29T09:55:57.043Z,99695.16
2022-12-29T10:01:05.187Z,99699.69
2022-12-29T10:06:13.761Z,99702.41
2022-12-29T10:11:33.365Z,99696.31
2022-12-29T10:16:44.798Z,99700.69
2022-12-29T10:22:01.830Z,99702.41
2022-12-29T10:27:12.649Z,99705.06
2022-12-29T10:32:27.460Z,99701.53
2022-12-29T10:37:40.628Z,99705.88
2022-12-29T10:42:53.109Z,99715.44
2022-12-29T10:48:02.453Z,99705.78
2022-12-29T10:53:08.009Z,99699.69
2022-12-29T10:58:15.931Z,99697.97
2022-12-29T11:03:43.355Z,99703.13
2022-12-29T11:08:53.271Z,99697.81
2022-12-29T11:14:05.063Z,99683.88
2022-12-29T11:19:08.295Z,99676.91
2022-12-29T11:24:23.502Z,99671.59
2022-12-29T11:29:30.352Z,99683.84
2022-12-29T11:34:35.558Z,99682.06
2022-12-29T11:39:43.493Z,99682.94
2022-12-29T11:44:50.057Z,99665.59
2022-12-29T11:49:56.534Z,99693.56
2022-12-29T11:55:01.196Z,99698.00
2022-12-29T12:00:18.243Z,99693.69
2022-12-29T12:05:32.941Z,99705.91
2022-12-29T12:10:43.928Z,99676.28
2022-12-29T12:15:56.633Z,99726.00
2022-12-29T12:21:08.159Z,99713.78
2022-12-29T12:26:15.321Z,99692.88
2022-12-29T12:31:28.871Z,99707.69
2022-12-29T12:36:56.408Z,99709.41
2022-12-29T12:42:15.043Z,99694.59
2022-12-29T12:47:42.567Z,99698.97
2022-12-29T12:53:04.213Z,99705.97
2022-12-29T12:58:18.119Z,99705.09
2022-12-29T13:03:31.791Z,99698.97
2022-12-29T13:09:05.727Z,99703.31
2022-12-29T13:14:18.677Z,99713.78
2022-12-29T13:19:36.807Z,99700.72
2022-12-29T13:24:53.257Z,99710.31
2022-12-29T13:30:04.538Z,99709.47
2022-12-29T13:35:23.978Z,99705.09
2022-12-29T13:40:31.643Z,99707.72
2022-12-29T13:45:37.246Z,99706.84
2022-12-29T13:50:42.990Z,99690.28
2022-12-29T13:55:54.031Z,99711.19
2022-12-29T14:01:03.297Z,99715.56
2022-12-29T14:06:19.086Z,99714.69
2022-12-29T14:11:26.801Z,99717.31
2022-12-29T14:16:33.673Z,99713.84
2022-12-29T14:21:38.981Z,99725.16
2022-12-29T14:26:42.413Z,99726.03
2022-12-29T14:31:45.734Z,99732.13
2022-12-29T14:36:57.955Z,99711.22
2022-12-29T14:42:07.392Z,99713.84
2022-12-29T14:47:11.129Z,99705.09
2022-12-29T14:52:22.460Z,99685.94
2022-12-29T14:57:32.372Z,99710.34
2022-12-29T15:02:40.870Z,99711.22
2022-12-29T15:07:45.578Z,99715.56
2022-12-29T15:12:54.490Z,99713.84
2022-12-29T15:17:58.173Z,99700.75
2022-12-29T15:28:24.550Z,99720.78
2022-12-29T15:33:29.759Z,99703.38
2022-12-29T15:38:40.222Z,99710.34
2022-12-29T15:43:53.599Z,99705.09
2022-12-29T15:48:56.964Z,99703.38
2022-12-29T15:54:01.763Z,99685.94
2022-12-29T15:59:05.152Z,99692.94
2022-12-29T16:04:11.234Z,99683.31
2022-12-29T16:09:21.539Z,99680.72
2022-12-29T16:14:32.297Z,99677.22
2022-12-29T16:19:39.568Z,99674.63
2022-12-29T16:24:44.278Z,99664.16
2022-12-29T16:29:48.587Z,99660.66
2022-12-29T16:34:55.329Z,99666.78
2022-12-29T16:40:27.228Z,99662.44
2022-12-29T16:46:04.103Z,99665.91
2022-12-29T16:51:16.169Z,99654.59
2022-12-29T16:56:26.615Z,99662.44
2022-12-29T17:01:30.710Z,99655.47
2022-12-29T17:06:34.125Z,99660.66
2022-12-29T17:12:01.625Z,99656.31
2022-12-29T17:17:11.356Z,99654.56
2022-12-29T17:22:18.411Z,99641.47
2022-12-29T17:27:30.792Z,99651.06
2022-12-29T17:32:34.882Z,99651.94
2022-12-29T17:37:39.229Z,99610.13
2022-12-29T17:42:46.464Z,99637.16
2022-12-29T17:47:50.300Z,99627.56
2022-12-29T17:53:00.636Z,99624.06
2022-12-29T17:58:18.027Z,99626.69
2022-12-29T18:03:24.968Z,99621.47
2022-12-29T18:08:32.308Z,99619.72
2022-12-29T18:13:45.787Z,99612.75
2022-12-29T18:18:49.807Z,99610.13
2022-12-29T18:23:53.182Z,99617.13
2022-12-29T18:28:58.302Z,99618.00
2022-12-29T18:34:03.543Z,99617.13
2022-12-29T18:39:06.964Z,99619.69
2022-12-29T18:44:14.953Z,99610.13
2022-12-29T18:49:18.443Z,99595.31
2022-12-29T18:54:29.155Z,99611.88
2022-12-29T18:59:34.231Z,99604.03
2022-12-29T19:04:37.641Z,99610.97
2022-12-29T19:09:40.920Z,99602.25
2022-12-29T19:14:45.632Z,99603.13
2022-12-29T19:19:48.970Z,99577.03
2022-12-29T19:24:58.020Z,99604.03
2022-12-29T19:30:04.961Z,99598.78
2022-12-29T19:35:09.479Z,99600.53
2022-12-29T19:40:16.594Z,99603.13
2022-12-29T19:45:21.697Z,99597.03
2022-12-29T19:50:25.102Z,99593.56
2022-12-29T19:55:30.277Z,99590.94
2022-12-29T20:00:35.070Z,99591.81
2022-12-29T20:05:38.762Z,99590.09
2022-12-29T20:10:42.019Z,99586.59
2022-12-29T20:15:46.648Z,99581.38
2022-12-29T20:20:50.132Z,99581.38
2022-12-29T20:25:57.646Z,99585.75
2022-12-29T20:31:04.923Z,99584.88
2022-12-29T20:36:10.638Z,99575.28
2022-12-29T20:41:14.718Z,99577.88
2022-12-29T20:46:21.929Z,99578.72
2022-12-29T20:51:27.732Z,99572.63
2022-12-29T20:56:31.994Z,99565.66
2022-12-29T21:01:37.199Z,99565.66
2022-12-29T21:06:40.515Z,99560.44
2022-12-29T21:11:43.753Z,99556.09
2022-12-29T21:16:48.656Z,99546.50
2022-12-29T21:21:52.031Z,99543.91
2022-12-29T21:26:55.348Z,99539.56
2022-12-29T21:32:06.476Z,99529.97
2022-12-29T21:37:10.592Z,99516.91
2022-12-29T21:42:13.753Z,99522.16
2022-12-29T21:47:18.661Z,99519.50
2022-12-29T21:52:22.285Z,99507.31
2022-12-29T21:57:42.779Z,99509.06
2022-12-29T22:03:05.057Z,99503.81
2022-12-29T22:08:25.457Z,99502.94
2022-12-29T22:13:29.203Z,99511.66
2022-12-29T22:18:34.083Z,99511.66
2022-12-29T22:23:38.703Z,99506.44
2022-12-29T22:28:44.343Z,99495.09
2022-12-29T22:33:49.262Z,99502.91
2022-12-29T22:38:52.856Z,99512.50
2022-12-29T22:43:56.753Z,99504.66
2022-12-29T22:49:01.789Z,99500.28
2022-12-29T22:54:05.071Z,99495.06
2022-12-29T22:59:08.654Z,99490.72
2022-12-29T23:04:59.229Z,99496.81
2022-12-29T23:09:37.126Z,99495.94
2022-12-29T23:14:40.563Z,99487.22
2022-12-29T23:19:45.369Z,99488.94
2022-12-29T23:24:48.785Z,99484.59
2022-12-29T23:29:52.282Z,99479.38
2022-12-29T23:34:57.176Z,99482.00
2022-12-29T23:40:00.506Z,99475.94
2022-12-29T23:45:03.807Z,99471.56
2022-12-29T23:50:10.322Z,99482.03
2022-12-29T23:55:13.729Z,99483.78
